Aérodrome :
LOGIN :

S'inscrire | Disclaimer

   EN    FR    IT 

 










Légende :    VFR   VFR Marginal   IFR   IFR Intensif   IFR Très Intensif
Visi : 
Plafond : 
>= 8 km
>= 3000ft
5 à 8 km
1000 à 3000 ft
1500m à 5 km
500 à 1000 ft
800 à 1500m
200 à 500 ft
< 800m
< 200 ft
Symboles :   Orages  Brouillard  Fortes neiges  Fortes précipitations  Vent > 20 kt
SIGMETs :   Divers  Orages  Givrage  Turbulence  Onde Orograph.  Cendres Volcan.







- Altitude de l'aérodrome : 16 ft
- Code IATA : AAE


DABB - Annaba-Rabah Bitat

DERNIER METAR :
  • 200130Z 35008KT 6000 FEW023 BKN033 20/15 Q1018

METARs EXPIRÉS :
  • 200100Z 00000KT 9999 FEW023 BKN033 19/13 Q1018
  • 200030Z 26005KT 9999 FEW040 SCT100 19/13 Q1018
  • 200000Z 27005KT 9999 FEW040 19/13 Q1018
  • 192330Z 27006KT 9999 FEW040 SCT100 19/13 Q1018
  • 192300Z 23002KT 9999 FEW040 SCT100 19/12 Q1019

TAF TAF DABB
Valide du 20 à 00h jusqu'au 21 à 00h UTC


192300Z 2000/2024 33011KT 9999 FEW026
PROB40
TEMPO 2001/2007 27008KT 2000 BR BKN010
PROB40
TEMPO 2009/2018 FEW023TCU
BECMG 2020/2023 05008KT
Pas de NOTAMs connus pour ce terrain.



MET'MAP, la Météo Aéronautique d'un coup d'oeil ! - Copyright ORBIFLY Décembre 2007 - Disclaimer

ORBIFLY MET'MAP TEAM :

Programmation & Développement : Alexandra Zaïnal
Conception & Développement : Baudouin d'Aumeries
Co-Programmation & Développement : Marc-Olivier Méhu
Soutien technique & logistique : Manuel Goepfert

Contact : metmap@orbifly.com




SOURCES & CREDITS :

   NOAA